Time;durP1;ratioP1;P1;durP2;ratioP2;P2;SDS_P1;SDS_P2;PMS_P1;PMS_P2;Temp;Humidity;BMP_temperature;BMP_pressure;BME280_temperature;BME280_humidity;BME280_pressure;Samples;Min_cycle;Max_cycle;Signal;HPM_P1;HPM_P2
2023/09/08 00:02:09;;;;;;;15.15;4.62;;;;;;;22.06;31.48;100883.33;1719234;83;22399;-77
2023/09/08 00:05:16;;;;;;;15.43;4.22;;;;;;;21.97;31.56;100880.58;1697781;84;21343;-77
2023/09/08 00:08:23;;;;;;;9.45;4.05;;;;;;;21.99;31.68;100883.45;1701350;83;21304;-77
2023/09/08 00:11:29;;;;;;;12.78;3.60;;;;;;;21.97;31.75;100881.42;1734510;82;21394;-77
2023/09/08 00:14:34;;;;;;;12.47;3.98;;;;;;;22.02;31.61;100885.77;1732060;83;21371;-77
2023/09/08 00:17:40;;;;;;;14.87;3.95;;;;;;;22.22;31.32;100879.06;1728516;83;21342;-77
2023/09/08 00:20:47;;;;;;;7.17;3.72;;;;;;;22.25;31.20;100877.16;1735879;82;21319;-77
2023/09/08 00:23:51;;;;;;;11.95;3.92;;;;;;;22.06;31.37;100878.61;1750565;82;21307;-78
2023/09/08 00:26:57;;;;;;;13.55;3.87;;;;;;;22.15;31.36;100879.99;1742348;82;21921;-77
2023/09/08 00:30:03;;;;;;;15.20;4.30;;;;;;;22.12;31.40;100879.10;1742973;82;21989;-77
2023/09/08 00:33:08;;;;;;;10.93;3.77;;;;;;;22.11;31.46;100878.80;1742882;82;21315;-77
2023/09/08 00:36:15;;;;;;;7.33;3.65;;;;;;;22.09;31.51;100882.31;1741424;82;21245;-77
2023/09/08 00:39:20;;;;;;;10.00;3.92;;;;;;;22.11;31.53;100877.41;1728955;82;21338;-77
2023/09/08 00:42:25;;;;;;;12.05;3.77;;;;;;;22.01;31.65;100882.66;1732175;82;21356;-77
2023/09/08 00:45:31;;;;;;;12.80;4.60;;;;;;;21.94;31.77;100884.16;1733478;82;21355;-77
2023/09/08 00:48:37;;;;;;;11.18;4.10;;;;;;;21.92;31.73;100885.47;1733111;82;21339;-77
2023/09/08 00:51:43;;;;;;;11.83;4.20;;;;;;;22.06;31.62;100882.78;1732897;82;22004;-77
2023/09/08 00:54:51;;;;;;;15.13;4.28;;;;;;;22.05;31.57;100882.48;1732535;82;21336;-77
2023/09/08 00:57:58;;;;;;;9.68;4.45;;;;;;;21.76;31.94;100880.59;1731742;82;21917;-77
2023/09/08 01:01:06;;;;;;;12.33;4.70;;;;;;;21.89;31.76;100887.36;1732806;82;21879;-78
2023/09/08 01:04:11;;;;;;;12.37;4.30;;;;;;;21.83;31.78;100885.50;1703708;84;21322;-77
2023/09/08 01:07:18;;;;;;;11.53;3.92;;;;;;;21.83;31.76;100888.28;1703985;84;21335;-77
2023/09/08 01:10:22;;;;;;;9.70;3.72;;;;;;;21.83;31.73;100886.38;1703827;84;21347;-77
2023/09/08 01:13:28;;;;;;;9.58;4.40;;;;;;;21.77;31.81;100883.67;1703353;84;21374;-77
2023/09/08 01:16:34;;;;;;;12.40;3.80;;;;;;;21.60;32.04;100883.50;1702451;84;21319;-77
2023/09/08 01:19:40;;;;;;;13.25;4.03;;;;;;;21.54;32.20;100883.02;1703868;84;21364;-78
2023/09/08 01:22:56;;;;;;;13.10;4.53;;;;;;;21.56;32.15;100880.33;1702829;84;21323;-78
2023/09/08 01:26:09;;;;;;;11.60;3.80;;;;;;;21.58;32.16;100880.92;1674591;84;21327;-78
2023/09/08 01:29:17;;;;;;;13.80;4.40;;;;;;;21.64;32.03;100881.40;1704012;84;21323;-77
2023/09/08 01:32:22;;;;;;;9.53;4.10;;;;;;;21.59;32.09;100874.81;1712347;82;21293;-78
2023/09/08 01:35:28;;;;;;;14.45;3.67;;;;;;;21.49;32.16;100880.94;1732178;82;21614;-77
2023/09/08 01:38:33;;;;;;;14.58;4.30;;;;;;;21.17;32.65;100878.85;1731375;82;21386;-78
2023/09/08 01:41:39;;;;;;;16.93;4.42;;;;;;;21.14;32.71;100878.79;1722342;83;21613;-78
2023/09/08 01:44:46;;;;;;;10.95;3.67;;;;;;;21.28;32.58;100883.66;1723570;83;21335;-78
2023/09/08 01:47:51;;;;;;;14.60;3.70;;;;;;;21.29;32.60;100878.94;1722264;83;21350;-78
2023/09/08 01:50:57;;;;;;;13.20;4.17;;;;;;;21.10;32.85;100878.94;1721254;83;21343;-78
2023/09/08 01:54:04;;;;;;;13.55;3.80;;;;;;;21.10;32.85;100877.55;1721440;83;22470;-79
2023/09/08 01:57:09;;;;;;;8.95;3.72;;;;;;;21.07;33.01;100876.61;1720568;83;21346;-78
2023/09/08 02:00:15;;;;;;;15.28;4.20;;;;;;;20.89;33.21;100874.70;1721312;83;21310;-78
2023/09/08 02:03:21;;;;;;;13.58;4.47;;;;;;;21.18;32.87;100881.97;1721842;83;21335;-78
2023/09/08 02:06:27;;;;;;;8.45;3.42;;;;;;;21.14;32.95;100867.67;1721430;83;21930;-78
2023/09/08 02:09:43;;;;;;;16.48;3.47;;;;;;;21.11;33.05;100873.69;1720147;83;21255;-78
2023/09/08 02:12:48;;;;;;;9.85;3.40;;;;;;;21.31;32.84;100876.79;1722188;83;21311;-78
2023/09/08 02:15:53;;;;;;;17.75;4.25;;;;;;;21.17;33.03;100868.60;1720366;83;21363;-79
2023/09/08 02:18:59;;;;;;;10.05;4.00;;;;;;;21.15;33.15;100867.13;1723956;83;21320;-78
2023/09/08 02:22:05;;;;;;;11.48;3.72;;;;;;;21.27;32.91;100865.27;1723827;83;21299;-78
2023/09/08 02:25:13;;;;;;;9.33;3.83;;;;;;;21.32;32.78;100860.43;1723959;83;21304;-78
2023/09/08 02:28:19;;;;;;;8.38;3.72;;;;;;;20.82;33.46;100864.18;1723816;83;22009;-78
2023/09/08 02:31:24;;;;;;;9.00;3.62;;;;;;;21.06;33.20;100861.56;1723779;83;21320;-78
2023/09/08 02:34:31;;;;;;;7.53;3.08;;;;;;;21.10;33.10;100859.48;1722576;83;21312;-78
2023/09/08 02:37:37;;;;;;;13.72;3.72;;;;;;;21.10;32.99;100863.64;1722587;83;21336;-78
2023/09/08 02:40:43;;;;;;;8.63;3.25;;;;;;;20.87;33.46;100860.70;1723432;81;22314;-78
2023/09/08 02:43:49;;;;;;;8.18;4.15;;;;;;;20.42;34.08;100867.87;1723725;83;22279;-78
2023/09/08 02:46:54;;;;;;;8.60;3.10;;;;;;;20.63;33.83;100868.86;1723669;83;21355;-78
2023/09/08 02:50:02;;;;;;;10.72;3.98;;;;;;;20.59;34.02;100863.45;1722857;83;21403;-78
2023/09/08 02:53:08;;;;;;;10.25;3.47;;;;;;;20.52;34.09;100863.22;1723946;83;21308;-78
2023/09/08 02:56:13;;;;;;;11.38;4.30;;;;;;;20.51;34.13;100862.34;1724070;83;21296;-78
2023/09/08 02:59:18;;;;;;;11.38;3.65;;;;;;;20.54;34.15;100864.68;1724177;83;21328;-78
2023/09/08 03:02:23;;;;;;;13.58;3.72;;;;;;;20.75;33.87;100863.92;1723937;83;21304;-78
2023/09/08 03:05:29;;;;;;;14.23;4.20;;;;;;;20.87;33.63;100864.33;1722735;83;21344;-78
2023/09/08 03:08:36;;;;;;;7.78;3.42;;;;;;;20.84;33.75;100873.67;1722714;83;21359;-78
2023/09/08 03:11:43;;;;;;;11.90;3.95;;;;;;;20.83;33.79;100863.64;1723976;83;21368;-78
2023/09/08 03:14:48;;;;;;;10.15;4.20;;;;;;;20.82;33.88;100870.28;1722682;83;21308;-78
2023/09/08 03:17:54;;;;;;;13.15;4.00;;;;;;;20.86;33.82;100869.59;1723397;83;21316;-78
2023/09/08 03:21:03;;;;;;;11.33;3.65;;;;;;;20.85;33.84;100868.44;1722625;83;21331;-78
2023/09/08 03:24:08;;;;;;;8.98;3.50;;;;;;;20.93;33.73;100868.96;1723759;83;21315;-78
2023/09/08 03:27:13;;;;;;;10.40;3.37;;;;;;;20.89;33.72;100868.30;1723756;83;21390;-78
2023/09/08 03:30:20;;;;;;;15.25;3.80;;;;;;;20.85;33.83;100869.83;1724075;83;21328;-78
2023/09/08 03:33:25;;;;;;;9.70;3.75;;;;;;;20.84;33.86;100865.33;1723970;83;21351;-78
2023/09/08 03:36:35;;;;;;;10.50;3.10;;;;;;;21.23;33.52;100865.97;1724301;83;21331;-78
2023/09/08 03:39:39;;;;;;;9.00;3.90;;;;;;;21.44;33.23;100871.91;1722713;83;21303;-78
2023/09/08 03:42:46;;;;;;;11.30;3.55;;;;;;;21.37;33.40;100867.53;1739244;82;22599;-78
2023/09/08 03:45:52;;;;;;;11.50;3.67;;;;;;;21.43;33.34;100867.43;1744691;82;21334;-78
2023/09/08 03:49:00;;;;;;;21.05;4.35;;;;;;;21.30;33.64;100873.67;1742597;82;21894;-78
2023/09/08 03:52:06;;;;;;;15.90;3.72;;;;;;;21.33;33.62;100873.25;1741938;82;21334;-78
2023/09/08 03:55:12;;;;;;;9.43;3.67;;;;;;;21.48;33.52;100878.41;1733803;82;21302;-78
2023/09/08 03:58:18;;;;;;;22.48;4.22;;;;;;;21.64;33.31;100879.12;1741506;82;21347;-78
2023/09/08 04:01:23;;;;;;;13.95;4.30;;;;;;;21.79;33.11;100878.73;1741927;82;21332;-78
2023/09/08 04:04:29;;;;;;;17.17;3.95;;;;;;;21.98;32.97;100872.01;1741767;82;21352;-78
2023/09/08 04:07:34;;;;;;;16.57;3.75;;;;;;;22.07;32.84;100873.36;1741805;82;21889;-78
2023/09/08 04:10:41;;;;;;;16.12;4.05;;;;;;;22.27;32.67;100869.44;1741912;82;21326;-79
2023/09/08 04:13:46;;;;;;;21.20;4.03;;;;;;;22.18;32.83;100875.34;1742070;82;21323;-78
2023/09/08 04:16:52;;;;;;;10.50;3.67;;;;;;;22.28;32.83;100873.91;1740999;82;21918;-78
2023/09/08 04:19:57;;;;;;;9.60;3.70;;;;;;;22.40;32.80;100873.39;1714161;83;21962;-78
2023/09/08 04:23:01;;;;;;;10.05;3.83;;;;;;;22.43;32.84;100877.08;1705098;83;21321;-78
2023/09/08 04:26:07;;;;;;;14.13;3.40;;;;;;;22.73;32.53;100880.31;1721680;82;21392;-78
2023/09/08 04:29:13;;;;;;;14.15;3.75;;;;;;;22.69;32.68;100876.61;1740656;82;22005;-78
2023/09/08 04:32:17;;;;;;;11.25;3.60;;;;;;;23.12;32.21;100876.77;1742251;82;21851;-78
2023/09/08 04:35:24;;;;;;;14.85;4.55;;;;;;;23.32;31.99;100879.15;1740918;82;22001;-78
2023/09/08 04:38:30;;;;;;;20.30;6.53;;;;;;;23.45;31.86;100877.48;1740629;82;21358;-78
2023/09/08 04:41:35;;;;;;;31.40;9.10;;;;;;;23.60;31.66;100874.14;1741878;82;21331;-78
2023/09/08 04:44:40;;;;;;;18.73;7.55;;;;;;;23.76;31.47;100874.47;1741656;82;21303;-78
2023/09/08 04:47:46;;;;;;;18.07;6.87;;;;;;;23.76;31.43;100873.95;1738412;82;21197;-79
2023/09/08 04:50:53;;;;;;;14.93;5.70;;;;;;;23.97;31.17;100876.55;1728816;83;22314;-78
2023/09/08 04:53:57;;;;;;;16.48;6.78;;;;;;;24.20;30.96;100885.35;1732361;82;21327;-78
2023/09/08 04:57:04;;;;;;;18.37;5.47;;;;;;;24.30;30.97;100876.30;1735745;82;21316;-79
2023/09/08 05:00:12;;;;;;;13.90;5.62;;;;;;;24.42;30.71;100882.14;1737662;82;21308;-79
2023/09/08 05:03:19;;;;;;;13.83;3.92;;;;;;;24.61;30.49;100880.48;1743985;81;21879;-78
2023/09/08 05:06:26;;;;;;;7.97;3.70;;;;;;;24.73;30.19;100884.02;1735299;82;21367;-79
2023/09/08 05:09:33;;;;;;;10.65;3.70;;;;;;;24.82;30.21;100883.03;1735445;82;21326;-79
2023/09/08 05:12:37;;;;;;;9.45;3.37;;;;;;;25.14;29.74;100878.49;1737765;82;21350;-79
2023/09/08 05:15:48;;;;;;;14.10;3.27;;;;;;;25.15;29.64;100878.78;1731718;82;21315;-78
2023/09/08 05:18:54;;;;;;;8.85;3.40;;;;;;;25.23;29.84;100878.89;1700755;83;21307;-79
2023/09/08 05:22:02;;;;;;;9.28;3.37;;;;;;;25.43;29.33;100883.34;1739096;82;21342;-79
2023/09/08 05:25:08;;;;;;;19.10;3.42;;;;;;;25.44;29.33;100881.39;1724089;82;21890;-79
2023/09/08 05:28:13;;;;;;;10.28;3.30;;;;;;;25.64;28.99;100883.05;1723509;82;21310;-77
2023/09/08 05:31:19;;;;;;;15.18;3.27;;;;;;;25.89;28.88;100887.27;1717837;83;21332;-78
2023/09/08 05:34:23;;;;;;;11.43;3.22;;;;;;;26.04;28.94;100881.81;1713490;82;21289;-77
2023/09/08 05:37:29;;;;;;;7.53;3.02;;;;;;;26.15;28.91;100879.38;1712369;83;21376;-78
2023/09/08 05:40:45;;;;;;;9.05;3.10;;;;;;;26.51;28.54;100874.13;1729273;82;21316;-78
2023/09/08 05:43:52;;;;;;;12.25;3.25;;;;;;;26.69;28.22;100875.11;1731992;82;22846;-79
2023/09/08 05:46:57;;;;;;;10.75;3.20;;;;;;;26.87;28.15;100869.62;1691246;84;21334;-79
2023/09/08 05:50:03;;;;;;;14.25;3.15;;;;;;;27.25;27.47;100873.22;1686539;83;21840;-79
2023/09/08 05:53:08;;;;;;;10.15;3.05;;;;;;;27.28;27.06;100874.06;1678923;85;22297;-78
2023/09/08 05:56:14;;;;;;;8.35;2.75;;;;;;;27.47;26.84;100873.86;1677062;83;21342;-78
2023/09/08 05:59:20;;;;;;;6.33;2.75;;;;;;;27.29;27.10;100879.11;1683751;83;21346;-79
2023/09/08 06:02:27;;;;;;;11.70;3.30;;;;;;;27.72;26.72;100880.17;1666754;83;21340;-78
2023/09/08 06:05:34;;;;;;;11.53;3.10;;;;;;;27.86;26.43;100877.68;1697260;83;21887;-77
2023/09/08 06:08:40;;;;;;;11.10;2.98;;;;;;;28.02;26.18;100874.33;1700773;83;21330;-79
2023/09/08 06:11:47;;;;;;;15.00;2.90;;;;;;;28.02;26.21;100872.92;1696185;83;21727;-80
2023/09/08 06:14:54;;;;;;;8.25;2.65;;;;;;;28.06;26.17;100871.81;1687864;83;21345;-80
2023/09/08 06:18:00;;;;;;;8.88;2.77;;;;;;;28.01;25.79;100869.83;1686035;83;21357;-80
2023/09/08 06:21:05;;;;;;;8.73;2.45;;;;;;;27.93;26.12;100866.16;1699087;83;21347;-79
2023/09/08 06:24:11;;;;;;;6.40;1.98;;;;;;;28.20;25.50;100869.56;1658223;84;21932;-80
2023/09/08 06:27:17;;;;;;;5.83;2.12;;;;;;;28.33;24.71;100866.77;1681976;83;21368;-79
2023/09/08 06:30:22;;;;;;;5.47;2.10;;;;;;;28.43;24.47;100859.76;1683871;83;21912;-80
2023/09/08 06:33:27;;;;;;;5.50;1.85;;;;;;;28.49;24.17;100864.81;1674695;83;21327;-79
2023/09/08 06:36:34;;;;;;;4.97;1.50;;;;;;;28.63;23.60;100860.30;1676433;84;21328;-80
2023/09/08 06:39:39;;;;;;;8.20;1.95;;;;;;;28.02;23.92;100866.73;1669108;84;21319;-80
2023/09/08 06:42:47;;;;;;;16.05;2.10;;;;;;;28.53;23.43;100865.38;1674868;84;21327;-80
2023/09/08 06:45:57;;;;;;;6.37;1.50;;;;;;;28.64;23.38;100870.42;1674156;83;21314;-80
2023/09/08 06:49:02;;;;;;;13.75;1.60;;;;;;;28.73;22.86;100863.09;1703343;82;21339;-79
2023/09/08 06:52:07;;;;;;;7.17;1.65;;;;;;;28.66;22.46;100872.41;1733320;81;21298;-79
2023/09/08 06:55:16;;;;;;;2.72;1.47;;;;;;;28.72;22.54;100865.63;1728627;82;21885;-79
2023/09/08 06:58:20;;;;;;;9.33;1.52;;;;;;;28.77;22.31;100870.41;1706177;82;22500;-79
2023/09/08 07:01:26;;;;;;;6.75;1.10;;;;;;;28.69;21.84;100869.00;1724429;82;21369;-80
2023/09/08 07:04:31;;;;;;;6.83;1.30;;;;;;;28.59;21.19;100871.84;1709753;83;21855;-79
2023/09/08 07:07:38;;;;;;;11.22;1.57;;;;;;;28.57;21.68;100865.66;1710372;82;21264;-78
2023/09/08 07:10:45;;;;;;;8.35;1.40;;;;;;;28.84;21.93;100865.88;1728754;81;21326;-78
2023/09/08 07:13:50;;;;;;;4.92;1.42;;;;;;;28.90;22.05;100868.98;1724204;81;21346;-79
2023/09/08 07:16:56;;;;;;;3.10;1.45;;;;;;;29.14;21.24;100867.25;1698555;83;21320;-79
2023/09/08 07:20:03;;;;;;;5.35;1.45;;;;;;;29.31;21.07;100870.28;1729176;82;21291;-79
2023/09/08 07:23:09;;;;;;;8.38;2.22;;;;;;;29.33;21.31;100856.77;1730821;81;21312;-79
2023/09/08 07:26:14;;;;;;;7.30;2.45;;;;;;;29.33;22.12;100853.95;1696002;82;21317;-79
2023/09/08 07:29:21;;;;;;;7.80;1.80;;;;;;;29.43;22.36;100853.33;1710158;82;21332;-79
2023/09/08 07:32:27;;;;;;;6.83;1.60;;;;;;;29.67;21.64;100852.10;1735398;82;21991;-79
2023/09/08 07:35:33;;;;;;;3.92;1.45;;;;;;;29.90;21.21;100856.77;1729247;82;21336;-79
2023/09/08 07:38:38;;;;;;;13.53;1.60;;;;;;;29.76;20.67;100850.36;1730330;81;21915;-79
2023/09/08 07:41:49;;;;;;;6.92;1.82;;;;;;;29.65;20.87;100846.50;1729695;81;22737;-80
2023/09/08 07:44:57;;;;;;;4.80;1.47;;;;;;;29.90;20.89;100850.55;1733932;81;21207;-79
2023/09/08 07:48:02;;;;;;;6.53;2.25;;;;;;;29.99;20.95;100843.73;1691420;82;21349;-79
2023/09/08 07:51:09;;;;;;;5.40;2.12;;;;;;;30.07;20.84;100841.70;1684996;83;21361;-79
2023/09/08 07:54:14;;;;;;;3.90;1.72;;;;;;;30.02;21.04;100841.17;1693826;83;21662;-79
2023/09/08 07:57:23;;;;;;;3.00;1.80;;;;;;;29.94;21.45;100835.30;1707619;82;21872;-79
2023/09/08 08:00:27;;;;;;;10.85;2.37;;;;;;;30.09;20.68;100837.16;1711301;82;22505;-79
2023/09/08 08:03:35;;;;;;;4.67;2.08;;;;;;;29.92;20.86;100830.51;1686406;83;21921;-78
2023/09/08 08:06:41;;;;;;;8.45;2.27;;;;;;;29.86;20.92;100826.89;1690838;83;21309;-80
2023/09/08 08:09:47;;;;;;;8.75;2.15;;;;;;;29.81;20.62;100819.04;1687279;83;21322;-80
2023/09/08 08:12:53;;;;;;;9.23;2.87;;;;;;;29.54;20.84;100830.16;1694181;83;21325;-80
2023/09/08 08:16:02;;;;;;;6.80;1.80;;;;;;;29.50;21.00;100813.55;1691630;83;21341;-79
2023/09/08 08:19:10;;;;;;;4.17;1.75;;;;;;;29.72;21.42;100820.22;1657599;85;22861;-79
2023/09/08 08:22:19;;;;;;;5.15;1.60;;;;;;;29.87;20.32;100817.29;1679008;83;21328;-79
2023/09/08 08:25:24;;;;;;;7.10;1.95;;;;;;;29.89;20.08;100814.20;1675248;83;21325;-78
2023/09/08 08:28:30;;;;;;;4.95;2.15;;;;;;;30.04;20.04;100799.97;1680603;84;21329;-80
2023/09/08 08:31:35;;;;;;;9.70;1.85;;;;;;;29.91;20.21;100812.75;1686321;83;22044;-80
2023/09/08 08:34:42;;;;;;;12.63;2.20;;;;;;;30.02;20.01;100807.90;1686748;83;21368;-80
2023/09/08 08:37:53;;;;;;;6.72;2.12;;;;;;;30.22;20.61;100800.70;1665717;83;21314;-78
2023/09/08 08:40:59;;;;;;;7.15;2.10;;;;;;;30.28;20.71;100809.38;1688492;84;21321;-79
2023/09/08 08:44:05;;;;;;;21.05;2.20;;;;;;;30.20;20.02;100797.31;1676637;84;21358;-79
2023/09/08 08:47:12;;;;;;;7.35;3.02;;;;;;;30.26;20.35;100806.59;1686779;84;21324;-79
2023/09/08 08:50:18;;;;;;;7.47;2.20;;;;;;;30.18;20.32;100810.88;1684642;83;21365;-79
2023/09/08 08:53:26;;;;;;;4.95;1.70;;;;;;;30.12;20.34;100803.58;1686210;83;21391;-80
2023/09/08 08:56:31;;;;;;;7.58;1.98;;;;;;;30.25;20.40;100786.01;1723717;82;21311;-78
2023/09/08 08:59:37;;;;;;;3.12;1.77;;;;;;;30.39;20.26;100787.54;1705052;83;22313;-80
2023/09/08 09:02:45;;;;;;;7.55;1.60;;;;;;;29.99;19.47;100803.67;1688962;83;21884;-80
2023/09/08 09:05:52;;;;;;;7.20;1.15;;;;;;;29.94;19.45;100786.80;1682572;83;21344;-79
2023/09/08 09:08:58;;;;;;;4.20;1.30;;;;;;;30.21;19.60;100772.22;1675998;84;21354;-80
2023/09/08 09:12:03;;;;;;;2.52;1.02;;;;;;;30.32;19.71;100767.88;1671073;85;21361;-79
2023/09/08 09:15:09;;;;;;;3.27;1.57;;;;;;;30.12;19.11;100769.73;1696831;83;21327;-79
2023/09/08 09:18:14;;;;;;;5.28;1.45;;;;;;;30.24;18.75;100785.71;1679711;83;21940;-79
2023/09/08 09:21:20;;;;;;;6.50;1.12;;;;;;;30.18;18.91;100789.73;1705809;83;22338;-79
2023/09/08 09:24:46;;;;;;;3.75;1.22;;;;;;;30.12;19.19;100777.35;1703984;83;22257;-80
2023/09/08 09:28:02;;;;;;;4.45;1.30;;;;;;;29.90;19.08;100771.59;1691717;83;21324;-80
2023/09/08 09:31:07;;;;;;;1.90;0.90;;;;;;;29.98;19.15;100770.98;1689508;83;22517;-80
2023/09/08 09:34:12;;;;;;;6.83;1.20;;;;;;;30.15;18.60;100763.51;1695201;83;21315;-79
2023/09/08 09:37:19;;;;;;;4.72;0.98;;;;;;;30.02;17.54;100758.55;1690470;83;22352;-80
2023/09/08 09:40:26;;;;;;;3.30;1.30;;;;;;;30.07;17.71;100773.17;1672889;83;21392;-79
2023/09/08 09:43:31;;;;;;;7.17;1.10;;;;;;;29.89;18.42;100757.80;1674530;83;21341;-79
2023/09/08 09:46:36;;;;;;;3.08;1.10;;;;;;;29.96;18.82;100754.06;1690786;83;22646;-79
2023/09/08 09:49:43;;;;;;;8.25;1.05;;;;;;;30.04;18.22;100752.86;1700919;81;21324;-79
2023/09/08 09:52:48;;;;;;;1.70;1.02;;;;;;;30.12;17.87;100745.75;1627206;84;21318;-79
2023/09/08 09:55:53;;;;;;;10.28;1.45;;;;;;;30.20;18.00;100739.48;1717253;81;21308;-79
2023/09/08 09:59:00;;;;;;;2.83;1.30;;;;;;;30.19;17.47;100740.62;1722283;81;21206;-80
2023/09/08 10:02:06;;;;;;;7.40;1.50;;;;;;;30.02;18.18;100750.08;1726509;81;21320;-80
2023/09/08 10:05:19;;;;;;;3.37;1.42;;;;;;;29.81;17.86;100749.39;1723763;82;21293;-80
2023/09/08 10:08:26;;;;;;;4.97;1.10;;;;;;;30.00;17.87;100733.44;1716911;82;21311;-80
2023/09/08 10:11:37;;;;;;;7.20;1.40;;;;;;;30.00;18.40;100734.01;1728377;82;21356;-80
2023/09/08 10:14:43;;;;;;;6.05;1.82;;;;;;;30.28;17.58;100727.55;1722553;82;21354;-80
2023/09/08 10:17:48;;;;;;;4.30;1.37;;;;;;;30.20;17.42;100729.61;1741752;82;21289;-79
2023/09/08 10:20:54;;;;;;;8.98;1.98;;;;;;;30.39;17.60;100725.45;1724404;82;21313;-79
2023/09/08 10:24:12;;;;;;;21.27;2.80;;;;;;;30.26;17.56;100721.95;1689238;84;22370;-79
2023/09/08 10:27:23;;;;;;;3.83;1.30;;;;;;;30.35;17.72;100715.94;1709291;83;21341;-80
2023/09/08 10:30:28;;;;;;;8.73;1.50;;;;;;;30.46;17.55;100713.84;1738424;80;22270;-80
2023/09/08 10:33:33;;;;;;;12.47;2.00;;;;;;;30.59;16.74;100719.34;1697650;83;21371;-79
2023/09/08 10:36:38;;;;;;;6.85;2.90;;;;;;;30.70;17.42;100701.97;1720360;82;21303;-80
2023/09/08 10:39:54;;;;;;;12.65;2.77;;;;;;;30.78;16.92;100704.16;1728081;82;21320;-80
2023/09/08 10:43:17;;;;;;;10.08;2.47;;;;;;;30.76;17.37;100690.91;1737034;82;21319;-80
2023/09/08 10:46:36;;;;;;;15.45;4.25;;;;;;;30.84;17.23;100691.38;1692323;83;21320;-80
2023/09/08 10:49:46;;;;;;;;;;;;;;;30.82;17.31;100681.81;1706922;83;21316;-80
2023/09/08 10:53:02;;;;;;;7.95;2.12;;;;;;;30.80;17.28;100680.69;1699718;82;20712;-79
2023/09/08 10:56:08;;;;;;;10.08;2.62;;;;;;;30.83;17.14;100680.66;1691578;84;21226;-79
2023/09/08 10:59:14;;;;;;;12.60;2.90;;;;;;;30.73;17.20;100676.00;1713073;83;21327;-79
2023/09/08 11:02:48;;;;;;;11.38;3.58;;;;;;;30.70;17.14;100663.85;1742116;80;21291;-79
2023/09/08 11:05:54;;;;;;;12.58;4.85;;;;;;;30.86;17.66;100667.91;1734357;82;21372;-78
2023/09/08 11:09:00;;;;;;;13.30;4.75;;;;;;;30.83;17.73;100661.47;1733162;82;21311;-79
2023/09/08 11:12:08;;;;;;;9.60;4.10;;;;;;;30.71;17.95;100658.50;1737113;82;21336;-79
2023/09/08 11:15:13;;;;;;;9.70;2.75;;;;;;;30.72;17.89;100654.53;1732047;81;21388;-79
2023/09/08 11:18:19;;;;;;;9.43;2.40;;;;;;;30.96;17.55;100650.81;1734101;82;21371;-79
2023/09/08 11:21:25;;;;;;;7.60;3.37;;;;;;;30.95;17.24;100650.55;1709415;83;21985;-78
2023/09/08 11:24:31;;;;;;;10.08;3.05;;;;;;;30.96;17.40;100650.27;1706109;83;21312;-78
2023/09/08 11:27:44;;;;;;;13.72;2.65;;;;;;;31.20;16.95;100653.02;1736933;82;21319;-79
2023/09/08 11:30:46;;;;;;;6.45;2.58;;;;;;;31.11;17.11;100636.49;1740166;82;21214;-79
2023/09/08 11:33:54;;;;;;;12.33;2.75;;;;;;;31.24;16.92;100639.09;1710507;83;22018;-78
2023/09/08 11:36:59;;;;;;;9.45;3.10;;;;;;;31.05;17.20;100632.04;1692419;83;22588;-78
2023/09/08 11:40:13;;;;;;;6.53;3.05;;;;;;;31.04;17.44;100619.07;1732349;82;21265;-78
2023/09/08 11:43:21;;;;;;;8.18;3.35;;;;;;;30.86;17.56;100611.43;1734337;82;21344;-79
2023/09/08 11:46:26;;;;;;;15.50;4.78;;;;;;;31.05;17.67;100612.27;1728470;81;21319;-79
2023/09/08 11:49:33;;;;;;;17.02;3.92;;;;;;;31.01;17.42;100612.06;1736114;82;22429;-78
2023/09/08 11:52:39;;;;;;;13.40;4.00;;;;;;;31.14;17.53;100609.59;1732424;81;22820;-79
2023/09/08 11:55:45;;;;;;;7.92;4.10;;;;;;;31.32;17.14;100595.22;1718400;82;21187;-79
2023/09/08 11:58:52;;;;;;;14.58;4.05;;;;;;;31.44;17.36;100597.00;1723455;83;21317;-79
2023/09/08 12:01:58;;;;;;;16.07;5.50;;;;;;;31.42;17.99;100591.64;1723215;83;21305;-79
2023/09/08 12:05:03;;;;;;;15.50;5.15;;;;;;;31.45;18.32;100590.19;1725714;83;21311;-79
2023/09/08 12:08:11;;;;;;;10.18;4.87;;;;;;;31.49;18.17;100579.95;1724120;83;21327;-79
2023/09/08 12:11:17;;;;;;;11.20;5.10;;;;;;;31.51;17.79;100567.75;1725364;83;21305;-79
2023/09/08 12:14:22;;;;;;;12.20;5.08;;;;;;;31.63;18.02;100556.80;1720394;83;22589;-79
2023/09/08 12:17:28;;;;;;;9.25;5.10;;;;;;;31.37;17.20;100569.70;1723645;83;21315;-79
2023/09/08 12:20:35;;;;;;;7.55;4.80;;;;;;;31.27;17.31;100565.06;1724515;83;22672;-79
2023/09/08 12:23:41;;;;;;;17.42;4.67;;;;;;;31.35;17.85;100547.98;1727198;82;21853;-79
2023/09/08 12:26:46;;;;;;;9.15;4.40;;;;;;;31.37;17.54;100561.22;1728168;82;21278;-79
2023/09/08 12:30:08;;;;;;;9.20;4.12;;;;;;;31.28;17.69;100559.67;1733091;82;21329;-79
2023/09/08 12:33:14;;;;;;;6.30;3.27;;;;;;;31.33;17.71;100547.44;1705118;84;21326;-79
2023/09/08 12:36:25;;;;;;;8.73;3.85;;;;;;;31.33;18.10;100539.80;1698681;82;21349;-79
2023/09/08 12:39:31;;;;;;;5.17;3.10;;;;;;;31.52;17.74;100539.73;1725371;82;21338;-79
2023/09/08 12:42:37;;;;;;;5.75;2.95;;;;;;;31.14;18.32;100536.98;1730942;82;21328;-79
2023/09/08 12:45:46;;;;;;;10.60;2.87;;;;;;;31.14;18.11;100536.14;1731770;82;21303;-79
2023/09/08 12:48:52;;;;;;;8.03;2.65;;;;;;;31.07;17.86;100530.07;1732985;82;21328;-79
2023/09/08 12:51:58;;;;;;;18.02;5.37;;;;;;;31.09;17.38;100522.95;1724720;82;21400;-79
2023/09/08 12:55:04;;;;;;;4.22;2.10;;;;;;;31.04;17.83;100532.92;1715403;83;21387;-79
2023/09/08 12:58:10;;;;;;;9.55;3.02;;;;;;;30.90;17.94;100533.44;1716279;83;21322;-78
2023/09/08 13:01:14;;;;;;;13.45;3.98;;;;;;;30.97;17.50;100531.08;1719012;83;21335;-78
2023/09/08 13:04:19;;;;;;;10.08;2.77;;;;;;;30.94;17.81;100537.33;1719775;83;21366;-78
2023/09/08 13:07:25;;;;;;;6.75;2.52;;;;;;;30.90;18.05;100527.79;1724018;82;21347;-78
2023/09/08 13:10:33;;;;;;;9.30;1.87;;;;;;;30.98;17.53;100518.63;1704580;84;21926;-78
2023/09/08 13:13:39;;;;;;;5.45;2.00;;;;;;;30.97;17.21;100516.95;1727740;82;21911;-79
2023/09/08 13:16:45;;;;;;;5.50;1.80;;;;;;;30.86;17.64;100514.84;1707367;84;21375;-78
2023/09/08 13:19:52;;;;;;;4.22;1.70;;;;;;;30.92;17.28;100501.52;1706730;84;21637;-78
2023/09/08 13:22:58;;;;;;;5.62;1.57;;;;;;;30.76;16.87;100505.97;1739972;82;21342;-78
2023/09/08 13:26:04;;;;;;;5.97;2.70;;;;;;;30.68;17.01;100503.83;1727339;82;21335;-79
2023/09/08 13:29:09;;;;;;;10.93;1.92;;;;;;;30.87;17.28;100503.01;1708048;84;22474;-79
2023/09/08 13:32:15;;;;;;;11.68;1.85;;;;;;;30.83;17.29;100509.00;1707617;84;21312;-79
2023/09/08 13:35:21;;;;;;;10.05;2.30;;;;;;;30.72;17.67;100490.78;1745072;82;21307;-78
2023/09/08 13:38:26;;;;;;;6.55;1.90;;;;;;;30.74;17.82;100504.04;1705952;84;21609;-79
2023/09/08 13:41:32;;;;;;;4.17;1.87;;;;;;;30.86;18.00;100487.19;1713756;83;21308;-78
2023/09/08 13:44:38;;;;;;;9.88;1.98;;;;;;;30.86;17.97;100478.72;1713507;83;21942;-78
2023/09/08 13:47:44;;;;;;;7.95;1.82;;;;;;;30.92;17.82;100477.51;1707541;83;21308;-78
2023/09/08 13:50:51;;;;;;;10.50;2.50;;;;;;;30.66;18.27;100465.17;1730253;82;21312;-79
2023/09/08 13:53:58;;;;;;;8.80;2.42;;;;;;;30.58;18.31;100465.86;1731021;82;21334;-78
2023/09/08 13:57:03;;;;;;;5.20;2.20;;;;;;;30.52;18.02;100465.67;1743647;82;21658;-78
2023/09/08 14:00:12;;;;;;;6.65;2.15;;;;;;;30.32;17.48;100465.42;1743857;82;21909;-79
2023/09/08 14:03:19;;;;;;;8.25;2.30;;;;;;;30.18;17.10;100459.69;1732572;82;21303;-79
2023/09/08 14:06:27;;;;;;;8.55;1.87;;;;;;;30.11;17.39;100451.29;1742189;82;21929;-78
2023/09/08 14:09:34;;;;;;;11.70;2.47;;;;;;;30.25;17.17;100455.06;1741688;82;21858;-78
2023/09/08 14:12:41;;;;;;;5.53;2.05;;;;;;;30.23;17.60;100453.97;1740990;82;21320;-78
2023/09/08 14:15:48;;;;;;;4.70;1.65;;;;;;;30.14;17.39;100454.38;1741934;82;21859;-78
2023/09/08 14:18:53;;;;;;;2.62;1.45;;;;;;;30.29;17.37;100449.09;1741901;82;21315;-78
2023/09/08 14:21:59;;;;;;;10.05;2.12;;;;;;;30.41;17.28;100450.06;1741927;82;21335;-78
2023/09/08 14:25:05;;;;;;;8.10;2.25;;;;;;;30.26;17.75;100450.55;1741583;82;21338;-78